createdAt,value
2023-02-17T00:05:42.566Z,10.90
2023-02-17T00:15:46.351Z,10.93
2023-02-17T00:25:50.594Z,10.93
2023-02-17T00:35:53.661Z,10.99
2023-02-17T00:45:58.566Z,10.98
2023-02-17T00:56:01.998Z,11.03
2023-02-17T01:06:09.892Z,11.01
2023-02-17T01:16:18.868Z,11.01
2023-02-17T01:26:25.523Z,11.00
2023-02-17T01:36:30.380Z,11.05
2023-02-17T01:46:36.257Z,11.11
2023-02-17T02:08:24.382Z,11.17
2023-02-17T02:18:45.230Z,11.21
2023-02-17T02:29:09.085Z,11.20
2023-02-17T02:39:17.668Z,11.20
2023-02-17T02:49:20.942Z,11.23
2023-02-17T02:59:35.251Z,11.23
2023-02-17T03:09:39.186Z,11.24
2023-02-17T03:19:45.843Z,11.38
2023-02-17T03:29:49.206Z,11.42
2023-02-17T03:39:56.542Z,11.42
2023-02-17T03:49:59.803Z,11.50
2023-02-17T04:00:05.573Z,11.35
2023-02-17T04:10:17.391Z,11.39
2023-02-17T04:20:22.087Z,11.35
2023-02-17T04:30:25.335Z,11.28
2023-02-17T04:40:29.595Z,11.29
2023-02-17T04:50:32.896Z,11.29
2023-02-17T05:00:37.962Z,11.28
2023-02-17T05:11:06.448Z,11.27
2023-02-17T05:21:10.942Z,11.32
2023-02-17T05:31:14.737Z,11.25
2023-02-17T05:41:20.412Z,11.30
2023-02-17T05:51:23.442Z,11.32
2023-02-17T06:01:28.633Z,11.38
2023-02-17T06:11:31.900Z,11.41
2023-02-17T06:21:36.642Z,11.48
2023-02-17T06:31:40.215Z,11.54
2023-02-17T06:41:44.764Z,11.56
2023-02-17T06:51:48.180Z,11.52
2023-02-17T07:01:54.549Z,11.62
2023-02-17T07:11:59.002Z,11.74
2023-02-17T07:22:03.821Z,11.79
2023-02-17T07:32:08.088Z,11.84
2023-02-17T07:52:43.406Z,11.95
2023-02-17T08:02:47.068Z,12.06
2023-02-17T08:13:05.662Z,12.16
2023-02-17T08:23:09.551Z,12.33
2023-02-17T08:33:18.037Z,12.46
2023-02-17T08:43:20.962Z,12.60
2023-02-17T08:53:25.526Z,12.75
2023-02-17T09:03:28.660Z,12.89
2023-02-17T09:13:33.356Z,13.01
2023-02-17T09:23:37.538Z,13.13
2023-02-17T09:33:42.828Z,13.72
2023-02-17T09:43:46.769Z,13.67
2023-02-17T09:53:58.717Z,13.99
2023-02-17T10:04:11.617Z,14.22
2023-02-17T10:14:20.254Z,14.31
2023-02-17T10:24:23.316Z,14.73
2023-02-17T10:34:37.492Z,14.96
2023-02-17T10:44:40.677Z,15.29
2023-02-17T10:54:51.440Z,15.41
2023-02-17T11:04:55.561Z,15.74
2023-02-17T11:15:04.362Z,15.81
2023-02-17T11:25:21.969Z,15.77
2023-02-17T11:35:46.109Z,15.81
2023-02-17T11:46:00.687Z,15.84
2023-02-17T11:56:15.470Z,15.93
2023-02-17T12:06:23.873Z,15.98
2023-02-17T12:16:41.239Z,16.13
2023-02-17T12:26:47.255Z,16.13
2023-02-17T12:36:53.350Z,16.54
2023-02-17T12:46:59.879Z,16.68
2023-02-17T12:57:14.672Z,16.79
2023-02-17T13:07:42.033Z,16.92
2023-02-17T13:17:56.527Z,17.23
2023-02-17T13:28:01.288Z,17.53
2023-02-17T13:38:06.524Z,17.14
2023-02-17T13:48:15.160Z,17.28
2023-02-17T13:58:25.533Z,17.23
2023-02-17T14:08:34.830Z,17.21
2023-02-17T14:18:42.790Z,17.07
2023-02-17T14:28:53.714Z,16.86
2023-02-17T14:38:59.348Z,16.65
2023-02-17T14:49:03.493Z,16.64
2023-02-17T14:59:07.842Z,16.30
2023-02-17T15:09:13.582Z,16.21
2023-02-17T15:19:18.174Z,16.21
2023-02-17T15:29:23.026Z,16.01
2023-02-17T15:39:27.195Z,15.95
2023-02-17T15:49:30.138Z,15.83
2023-02-17T15:59:38.120Z,15.75
2023-02-17T16:09:41.169Z,15.50
2023-02-17T16:19:45.557Z,15.30
2023-02-17T16:29:48.560Z,15.20
2023-02-17T16:39:52.940Z,14.99
2023-02-17T16:49:55.898Z,14.85
2023-02-17T17:00:00.373Z,14.59
2023-02-17T17:10:19.200Z,14.26
2023-02-17T17:20:28.064Z,14.55
2023-02-17T17:30:35.755Z,13.73
2023-02-17T17:40:49.202Z,13.10
2023-02-17T17:50:52.176Z,13.01
2023-02-17T18:00:56.700Z,12.90
2023-02-17T18:11:00.202Z,13.00
2023-02-17T18:21:04.469Z,12.84
2023-02-17T18:31:08.347Z,12.76
2023-02-17T18:41:20.295Z,12.93
2023-02-17T18:51:24.345Z,12.73
2023-02-17T19:01:32.088Z,12.86
2023-02-17T19:11:36.015Z,12.75
2023-02-17T19:21:40.483Z,12.88
2023-02-17T19:31:43.636Z,12.66
2023-02-17T19:41:48.206Z,12.60
2023-02-17T19:51:51.574Z,12.61
2023-02-17T20:01:55.956Z,12.63
2023-02-17T20:11:59.343Z,12.72
2023-02-17T20:22:04.180Z,13.06
2023-02-17T20:32:07.323Z,12.86
2023-02-17T20:42:11.755Z,12.71
2023-02-17T20:52:14.840Z,12.58
2023-02-17T21:02:19.760Z,12.74
2023-02-17T21:12:23.223Z,12.55
2023-02-17T21:22:27.773Z,12.48
2023-02-17T21:32:31.388Z,12.54
2023-02-17T21:42:52.118Z,12.30
2023-02-17T21:52:55.260Z,12.16
2023-02-17T22:02:59.987Z,12.22
2023-02-17T22:13:03.480Z,12.01
2023-02-17T22:23:07.969Z,12.29
2023-02-17T22:33:11.565Z,12.12
2023-02-17T22:43:16.108Z,12.18
2023-02-17T22:53:19.746Z,12.03
2023-02-17T23:03:24.752Z,12.00
2023-02-17T23:13:27.848Z,11.96
2023-02-17T23:23:32.318Z,11.89
2023-02-17T23:33:35.448Z,11.84
2023-02-17T23:43:39.965Z,11.76
2023-02-17T23:53:42.940Z,11.80
